createdAt,value
2022-11-29T00:01:42.188Z,4.86
2022-11-29T00:04:10.796Z,4.91
2022-11-29T00:06:39.492Z,4.86
2022-11-29T00:09:12.708Z,4.87
2022-11-29T00:11:59.853Z,4.93
2022-11-29T00:14:29.120Z,4.87
2022-11-29T00:17:02.372Z,5.00
2022-11-29T00:19:31.640Z,4.91
2022-11-29T00:22:00.099Z,4.73
2022-11-29T00:24:31.690Z,4.72
2022-11-29T00:27:00.381Z,4.93
2022-11-29T00:29:29.255Z,5.00
2022-11-29T00:31:57.289Z,4.78
2022-11-29T00:34:25.608Z,4.93
2022-11-29T00:36:53.762Z,4.88
2022-11-29T00:39:21.972Z,5.04
2022-11-29T00:41:51.578Z,5.06
2022-11-29T00:44:20.746Z,5.13
2022-11-29T00:46:49.861Z,4.93
2022-11-29T00:49:18.397Z,4.86
2022-11-29T00:51:46.621Z,5.20
2022-11-29T00:54:14.740Z,5.29
2022-11-29T00:56:43.091Z,5.28
2022-11-29T00:59:12.598Z,5.08
2022-11-29T01:01:40.746Z,4.95
2022-11-29T01:04:08.947Z,5.14
2022-11-29T01:06:37.073Z,4.81
2022-11-29T01:09:05.532Z,5.37
2022-11-29T01:11:33.954Z,5.30
2022-11-29T01:14:04.483Z,5.21
2022-11-29T01:16:34.225Z,5.42
2022-11-29T01:19:02.696Z,5.37
2022-11-29T01:21:31.346Z,5.29
2022-11-29T01:24:00.811Z,5.40
2022-11-29T01:26:30.965Z,5.56
2022-11-29T01:28:59.907Z,4.94
2022-11-29T01:31:30.619Z,5.25
2022-11-29T01:34:02.177Z,5.18
2022-11-29T01:36:30.564Z,5.07
2022-11-29T01:39:00.708Z,5.43
2022-11-29T01:41:32.042Z,4.98
2022-11-29T01:44:04.007Z,5.01
2022-11-29T01:46:34.813Z,5.06
2022-11-29T01:49:09.583Z,4.92
2022-11-29T01:51:40.598Z,4.84
2022-11-29T01:54:11.270Z,5.05
2022-11-29T01:56:40.123Z,5.01
2022-11-29T01:59:12.502Z,5.03
2022-11-29T02:01:40.715Z,5.43
2022-11-29T02:04:10.524Z,5.01
2022-11-29T02:06:40.374Z,5.19
2022-11-29T02:09:19.014Z,5.60
2022-11-29T02:12:07.267Z,5.56
2022-11-29T02:14:48.528Z,5.85
2022-11-29T02:17:25.928Z,5.74
2022-11-29T02:20:21.234Z,5.75
2022-11-29T02:22:57.628Z,5.68
2022-11-29T02:25:40.340Z,5.45
2022-11-29T02:28:56.428Z,5.73
2022-11-29T02:31:52.053Z,5.75
2022-11-29T02:34:39.250Z,5.76
2022-11-29T02:37:29.854Z,5.44
2022-11-29T02:40:27.025Z,5.46
2022-11-29T02:43:18.175Z,5.76
2022-11-29T02:45:54.892Z,5.43
2022-11-29T02:48:42.729Z,5.39
2022-11-29T02:51:19.233Z,5.63
2022-11-29T02:53:56.999Z,5.54
2022-11-29T02:56:30.686Z,5.15
2022-11-29T02:59:04.741Z,5.13
2022-11-29T03:01:41.272Z,5.21
2022-11-29T03:04:19.729Z,5.22
2022-11-29T03:06:58.719Z,5.43
2022-11-29T03:09:37.966Z,5.27
2022-11-29T03:12:18.857Z,5.10
2022-11-29T03:14:58.180Z,5.26
2022-11-29T03:17:38.565Z,5.34
2022-11-29T03:20:23.852Z,5.11
2022-11-29T03:23:11.695Z,5.16
2022-11-29T03:25:45.567Z,5.29
2022-11-29T03:28:19.984Z,4.95
2022-11-29T03:30:54.479Z,5.28
2022-11-29T03:33:29.880Z,4.94
2022-11-29T03:36:06.422Z,5.01
2022-11-29T03:38:41.979Z,5.44
2022-11-29T03:41:22.029Z,5.45
2022-11-29T03:43:58.717Z,4.96
2022-11-29T03:46:33.978Z,4.75
2022-11-29T03:49:05.657Z,5.03
2022-11-29T03:51:48.295Z,5.21
2022-11-29T03:54:24.081Z,5.13
2022-11-29T03:56:52.970Z,4.97
2022-11-29T03:59:36.685Z,5.18
2022-11-29T04:02:31.384Z,5.12
2022-11-29T04:05:30.205Z,5.16
2022-11-29T04:08:23.163Z,5.13
2022-11-29T04:11:20.524Z,5.01
2022-11-29T04:14:14.385Z,5.16
2022-11-29T04:17:08.573Z,4.94
2022-11-29T04:20:13.102Z,5.16
2022-11-29T04:23:03.384Z,4.92
2022-11-29T04:26:02.884Z,5.07
2022-11-29T04:29:04.850Z,4.92
2022-11-29T04:31:42.343Z,4.96
2022-11-29T04:34:29.473Z,4.93
2022-11-29T04:37:20.102Z,4.98
2022-11-29T04:40:25.841Z,4.89
2022-11-29T04:43:18.994Z,4.81
2022-11-29T04:46:27.945Z,5.01
2022-11-29T04:49:20.783Z,4.93
2022-11-29T04:52:20.495Z,4.99
2022-11-29T04:54:56.021Z,4.82
2022-11-29T04:57:32.011Z,4.95
2022-11-29T05:00:08.348Z,4.91
2022-11-29T05:02:42.570Z,4.93
2022-11-29T05:05:25.288Z,4.77
2022-11-29T05:08:10.255Z,4.97
2022-11-29T05:10:46.435Z,4.89
2022-11-29T05:13:21.028Z,4.96
2022-11-29T05:16:08.673Z,5.08
2022-11-29T05:18:58.898Z,5.15
2022-11-29T05:21:39.371Z,5.32
2022-11-29T05:24:20.909Z,5.25
2022-11-29T05:26:56.656Z,5.42
2022-11-29T05:29:34.696Z,5.25
2022-11-29T05:32:23.308Z,5.22
2022-11-29T05:35:08.634Z,5.30
2022-11-29T05:37:47.050Z,5.00
2022-11-29T05:40:41.077Z,5.16
2022-11-29T05:43:21.974Z,5.30
2022-11-29T05:45:57.019Z,5.08
2022-11-29T05:48:31.230Z,5.40
2022-11-29T05:51:11.560Z,5.45
2022-11-29T05:53:51.535Z,5.48
2022-11-29T05:56:27.696Z,5.55
2022-11-29T05:59:00.561Z,5.42
2022-11-29T06:01:33.126Z,5.39
2022-11-29T06:04:11.784Z,5.57
2022-11-29T06:06:49.593Z,5.72
2022-11-29T06:09:27.683Z,5.40
2022-11-29T06:12:02.611Z,5.44
2022-11-29T06:14:53.313Z,5.29
2022-11-29T06:17:48.944Z,5.44
2022-11-29T06:20:50.316Z,5.80
2022-11-29T06:23:48.855Z,5.62
2022-11-29T06:26:36.313Z,5.42
2022-11-29T06:29:25.458Z,5.70
2022-11-29T06:32:02.636Z,5.74
2022-11-29T06:34:45.794Z,5.68
2022-11-29T06:37:18.903Z,5.45
2022-11-29T06:39:47.485Z,5.64
2022-11-29T06:42:17.658Z,5.66
2022-11-29T06:44:46.833Z,5.34
2022-11-29T06:47:24.875Z,5.56
2022-11-29T06:49:59.773Z,5.38
2022-11-29T06:52:41.304Z,5.77
2022-11-29T06:55:18.548Z,5.74
2022-11-29T06:58:05.053Z,5.77
2022-11-29T07:00:44.026Z,5.76
2022-11-29T07:03:38.904Z,5.76
2022-11-29T07:06:16.118Z,5.88
2022-11-29T07:08:45.424Z,5.65
2022-11-29T07:11:16.242Z,6.04
2022-11-29T07:13:47.174Z,5.76
2022-11-29T07:16:27.067Z,5.61
2022-11-29T07:19:12.023Z,5.90
2022-11-29T07:21:50.518Z,5.74
2022-11-29T07:24:42.504Z,5.77
2022-11-29T07:27:36.243Z,5.53
2022-11-29T07:30:15.590Z,5.83
2022-11-29T07:33:00.464Z,5.86
2022-11-29T07:35:40.276Z,5.73
2022-11-29T07:38:20.618Z,5.52
2022-11-29T07:40:57.209Z,5.80
2022-11-29T07:43:42.644Z,5.68
2022-11-29T07:46:12.527Z,5.75
2022-11-29T07:48:43.737Z,5.86
2022-11-29T07:51:12.639Z,5.79
2022-11-29T07:53:44.147Z,5.78
2022-11-29T07:56:12.890Z,5.99
2022-11-29T07:58:42.175Z,6.06
2022-11-29T08:01:12.113Z,5.75
2022-11-29T08:03:42.528Z,5.84
2022-11-29T08:06:10.922Z,5.48
2022-11-29T08:08:43.700Z,5.98
2022-11-29T08:11:29.625Z,6.08
2022-11-29T08:14:02.345Z,6.65
2022-11-29T08:16:54.745Z,6.27
2022-11-29T08:19:46.123Z,5.92
2022-11-29T08:25:26.300Z,6.10
2022-11-29T08:28:11.210Z,6.14
2022-11-29T08:30:47.286Z,6.30
2022-11-29T08:33:17.749Z,6.22
2022-11-29T08:35:46.704Z,6.25
2022-11-29T08:38:18.103Z,6.41
2022-11-29T08:40:47.776Z,6.13
2022-11-29T08:43:18.839Z,6.47
2022-11-29T08:45:47.760Z,6.65
2022-11-29T08:48:20.613Z,6.97
2022-11-29T08:50:52.050Z,6.64
2022-11-29T08:53:39.566Z,6.47
2022-11-29T08:56:41.631Z,6.18
2022-11-29T08:58:57.868Z,6.49
2022-11-29T09:01:27.309Z,6.78
2022-11-29T09:04:03.603Z,6.61
2022-11-29T09:06:33.922Z,6.88
2022-11-29T09:09:03.741Z,6.94
2022-11-29T09:11:35.086Z,7.29
2022-11-29T09:14:06.026Z,7.06
2022-11-29T09:16:37.621Z,7.03
2022-11-29T09:19:09.369Z,7.10
2022-11-29T09:21:38.056Z,6.93
2022-11-29T09:24:08.638Z,7.31
2022-11-29T09:26:38.448Z,7.33
2022-11-29T09:29:10.828Z,6.94
2022-11-29T09:31:39.649Z,7.03
2022-11-29T09:34:09.671Z,6.65
2022-11-29T09:36:40.874Z,6.99
2022-11-29T09:39:10.073Z,7.28
2022-11-29T09:42:03.217Z,6.51
2022-11-29T09:44:41.886Z,6.32
2022-11-29T09:47:29.718Z,6.25
2022-11-29T09:50:14.783Z,6.52
2022-11-29T09:53:06.067Z,6.74
2022-11-29T09:55:58.419Z,6.60
2022-11-29T09:58:41.627Z,6.58
2022-11-29T10:01:22.006Z,6.33
2022-11-29T10:06:42.129Z,6.93
2022-11-29T10:09:23.869Z,6.73
2022-11-29T10:12:03.042Z,6.67
2022-11-29T10:14:37.667Z,6.42
2022-11-29T10:20:52.155Z,6.59
2022-11-29T10:23:30.922Z,6.79
2022-11-29T10:26:03.424Z,6.98
2022-11-29T10:28:35.197Z,7.36
2022-11-29T10:31:31.462Z,6.44
2022-11-29T10:34:02.442Z,6.62
2022-11-29T10:36:36.572Z,6.76
2022-11-29T10:39:15.274Z,6.58
2022-11-29T11:12:24.740Z,7.10
2022-11-29T11:14:53.623Z,6.89
2022-11-29T11:17:26.495Z,7.29
2022-11-29T11:20:01.043Z,7.20
2022-11-29T11:22:31.391Z,7.23
2022-11-29T11:25:03.921Z,7.46
2022-11-29T11:27:39.840Z,7.10
2022-11-29T11:30:25.291Z,6.88
2022-11-29T11:33:09.007Z,7.05
2022-11-29T11:35:39.259Z,7.07
2022-11-29T11:38:16.254Z,7.16
2022-11-29T11:40:44.972Z,7.05
2022-11-29T11:43:22.049Z,6.89
2022-11-29T11:45:54.972Z,7.03
2022-11-29T11:48:24.182Z,6.78
2022-11-29T11:50:56.588Z,6.78
2022-11-29T11:53:30.007Z,7.22
2022-11-29T11:56:02.041Z,7.14
2022-11-29T11:58:36.749Z,7.22
2022-11-29T12:01:16.788Z,7.22
2022-11-29T12:03:56.329Z,7.00
2022-11-29T12:06:33.604Z,6.98
2022-11-29T12:09:08.786Z,7.33
2022-11-29T12:11:44.784Z,7.19
2022-11-29T12:14:25.327Z,7.40
2022-11-29T12:17:03.441Z,7.29
2022-11-29T12:19:41.064Z,7.51
2022-11-29T12:22:16.223Z,7.31
2022-11-29T12:24:57.273Z,7.21
2022-11-29T12:27:28.757Z,7.57
2022-11-29T12:29:58.912Z,7.69
2022-11-29T12:32:50.971Z,7.80
2022-11-29T12:35:40.955Z,7.57
2022-11-29T12:38:23.471Z,7.47
2022-11-29T12:41:04.389Z,7.74
2022-11-29T12:43:48.994Z,7.85
2022-11-29T12:46:26.119Z,8.13
2022-11-29T12:49:01.905Z,7.24
2022-11-29T12:51:40.014Z,7.70
2022-11-29T12:54:21.640Z,7.53
2022-11-29T12:56:57.810Z,7.52
2022-11-29T12:59:38.131Z,7.53
2022-11-29T13:02:23.995Z,7.58
2022-11-29T13:05:08.335Z,7.10
2022-11-29T13:07:45.165Z,7.22
2022-11-29T13:10:35.873Z,7.35
2022-11-29T13:13:18.013Z,7.50
2022-11-29T13:15:51.943Z,7.72
2022-11-29T13:18:27.426Z,7.63
2022-11-29T13:21:02.751Z,7.65
2022-11-29T13:24:07.189Z,7.84
2022-11-29T13:26:27.450Z,7.76
2022-11-29T13:28:56.472Z,7.62
2022-11-29T13:31:26.337Z,7.60
2022-11-29T13:34:06.027Z,7.82
2022-11-29T13:36:49.150Z,7.43
2022-11-29T13:39:31.049Z,7.55
2022-11-29T13:42:07.749Z,7.25
2022-11-29T13:44:43.142Z,7.22
2022-11-29T13:47:14.020Z,7.39
2022-11-29T13:49:55.212Z,7.72
2022-11-29T13:52:44.170Z,7.82
2022-11-29T13:55:34.192Z,7.97
2022-11-29T13:58:16.829Z,7.49
2022-11-29T14:00:51.774Z,7.96
2022-11-29T14:03:36.232Z,7.91
2022-11-29T14:06:21.245Z,7.71
2022-11-29T14:09:32.138Z,7.90
2022-11-29T14:12:05.781Z,7.93
2022-11-29T14:14:41.133Z,7.98
2022-11-29T14:17:35.219Z,7.56
2022-11-29T14:20:52.209Z,7.83
2022-11-29T14:23:43.502Z,7.94
2022-11-29T14:26:31.181Z,8.12
2022-11-29T14:29:00.669Z,8.05
2022-11-29T14:31:48.445Z,8.03
2022-11-29T14:34:28.058Z,8.13
2022-11-29T14:37:04.815Z,8.05
2022-11-29T14:39:43.647Z,7.99
2022-11-29T14:42:17.141Z,7.92
2022-11-29T14:44:49.016Z,8.02
2022-11-29T14:47:24.761Z,7.93
2022-11-29T14:49:55.270Z,7.99
2022-11-29T15:31:50.659Z,7.64
2022-11-29T15:34:31.065Z,7.67
2022-11-29T15:36:59.809Z,7.38
2022-11-29T15:39:31.468Z,7.23
2022-11-29T15:42:04.630Z,7.50
2022-11-29T15:44:35.278Z,7.51
2022-11-29T15:47:16.851Z,7.30
2022-11-29T15:49:46.270Z,7.28
2022-11-29T15:52:30.939Z,7.20
2022-11-29T15:55:02.299Z,7.17
2022-11-29T15:57:36.115Z,7.34
2022-11-29T16:00:09.128Z,7.34
2022-11-29T16:02:41.048Z,7.20
2022-11-29T16:05:17.422Z,7.26
2022-11-29T16:07:47.303Z,7.28
2022-11-29T16:10:19.660Z,7.33
2022-11-29T16:12:56.064Z,7.40
2022-11-29T16:15:30.214Z,7.43
2022-11-29T16:18:04.803Z,7.52
2022-11-29T16:20:34.592Z,7.33
2022-11-29T16:23:12.433Z,7.06
2022-11-29T16:26:00.205Z,7.27
2022-11-29T16:28:34.026Z,7.35
2022-11-29T16:31:02.221Z,7.06
2022-11-29T16:33:30.400Z,7.24
2022-11-29T16:36:08.052Z,7.38
2022-11-29T16:38:36.061Z,7.45
2022-11-29T16:41:07.324Z,7.29
2022-11-29T16:43:53.954Z,7.27
2022-11-29T16:46:33.738Z,7.18
2022-11-29T16:49:04.644Z,7.18
2022-11-29T16:51:43.878Z,7.07
2022-11-29T16:54:24.402Z,7.10
2022-11-29T16:56:54.167Z,7.04
2022-11-29T16:59:27.892Z,7.19
2022-11-29T17:01:56.789Z,7.49
2022-11-29T17:04:25.712Z,7.34
2022-11-29T17:06:55.985Z,7.29
2022-11-29T17:09:26.270Z,7.16
2022-11-29T17:11:55.076Z,7.27
2022-11-29T17:14:23.262Z,7.17
2022-11-29T17:16:52.145Z,7.19
2022-11-29T17:19:25.584Z,7.13
2022-11-29T17:21:55.281Z,7.11
2022-11-29T17:24:24.617Z,7.08
2022-11-29T17:26:52.971Z,7.15
2022-11-29T17:29:21.185Z,7.23
2022-11-29T17:31:50.701Z,7.13
2022-11-29T17:34:19.198Z,7.38
2022-11-29T17:36:47.657Z,7.13
2022-11-29T17:39:20.225Z,7.24
2022-11-29T17:41:48.613Z,7.36
2022-11-29T17:44:16.891Z,7.52
2022-11-29T17:46:45.060Z,7.47
2022-11-29T17:49:13.342Z,7.40
2022-11-29T17:51:57.199Z,7.39
2022-11-29T17:54:27.058Z,7.43
2022-11-29T17:56:55.173Z,7.45
2022-11-29T17:59:23.387Z,7.54
2022-11-29T18:01:51.687Z,7.32
2022-11-29T18:04:19.844Z,7.54
2022-11-29T18:06:50.476Z,7.40
2022-11-29T18:09:20.029Z,7.22
2022-11-29T18:11:50.913Z,7.42
2022-11-29T18:14:21.309Z,7.21
2022-11-29T18:16:50.109Z,7.25
2022-11-29T18:19:20.830Z,7.09
2022-11-29T18:21:50.713Z,7.08
2022-11-29T18:24:19.150Z,7.32
2022-11-29T18:26:47.838Z,6.93
2022-11-29T18:29:17.527Z,6.95
2022-11-29T18:31:46.893Z,6.99
2022-11-29T18:34:16.239Z,7.23
2022-11-29T18:36:46.085Z,7.16
2022-11-29T18:39:16.540Z,7.18
2022-11-29T18:41:46.905Z,7.14
2022-11-29T18:44:18.201Z,7.07
2022-11-29T18:46:46.767Z,7.08
2022-11-29T18:49:16.706Z,7.20
2022-11-29T18:51:46.329Z,7.14
2022-11-29T18:54:15.375Z,7.20
2022-11-29T18:56:44.220Z,7.27
2022-11-29T18:59:14.861Z,7.02
2022-11-29T19:01:45.671Z,7.12
2022-11-29T19:04:15.484Z,6.93
2022-11-29T19:06:44.359Z,6.95
2022-11-29T19:09:15.078Z,6.96
2022-11-29T19:11:43.383Z,6.98
2022-11-29T19:14:13.600Z,6.84
2022-11-29T19:16:43.346Z,6.91
2022-11-29T19:19:13.546Z,6.69
2022-11-29T19:21:42.413Z,6.93
2022-11-29T19:24:17.908Z,6.79
2022-11-29T19:26:48.007Z,6.89
2022-11-29T19:29:17.576Z,6.51
2022-11-29T19:31:45.872Z,6.47
2022-11-29T19:34:15.714Z,6.26
2022-11-29T19:36:44.986Z,6.51
2022-11-29T19:39:15.902Z,6.68
2022-11-29T19:41:45.551Z,6.71
2022-11-29T19:44:14.340Z,6.63
2022-11-29T19:46:44.489Z,6.57
2022-11-29T19:49:13.299Z,6.53
2022-11-29T19:51:42.912Z,6.61
2022-11-29T19:54:12.094Z,6.66
2022-11-29T19:56:40.998Z,6.73
2022-11-29T19:59:09.882Z,6.84
2022-11-29T20:01:41.392Z,6.59
2022-11-29T20:04:11.880Z,6.51
2022-11-29T20:06:43.328Z,6.53
2022-11-29T20:09:11.997Z,6.62
2022-11-29T20:11:40.273Z,6.80
2022-11-29T20:14:09.354Z,6.73
2022-11-29T20:16:39.297Z,6.51
2022-11-29T20:19:11.031Z,6.34
2022-11-29T20:21:44.839Z,6.38
2022-11-29T20:24:14.503Z,6.38
2022-11-29T20:26:44.539Z,6.30
2022-11-29T20:29:13.183Z,6.30
2022-11-29T20:31:49.087Z,6.35
2022-11-29T20:34:19.592Z,6.26
2022-11-29T20:37:09.475Z,6.41
2022-11-29T20:39:47.267Z,6.61
2022-11-29T20:42:41.533Z,6.24
2022-11-29T20:45:11.425Z,6.15
2022-11-29T20:47:46.552Z,6.34
2022-11-29T20:50:21.798Z,6.36
2022-11-29T20:53:04.707Z,6.26
2022-11-29T20:55:32.788Z,6.42
2022-11-29T20:58:00.908Z,6.14
2022-11-29T21:00:29.017Z,6.33
2022-11-29T21:02:57.052Z,6.29
2022-11-29T21:05:25.371Z,6.36
2022-11-29T21:07:55.835Z,6.33
2022-11-29T21:10:24.189Z,6.45
2022-11-29T21:12:53.296Z,6.59
2022-11-29T21:15:22.461Z,6.56
2022-11-29T21:17:51.109Z,6.67
2022-11-29T21:20:22.096Z,6.65
2022-11-29T21:22:59.897Z,6.72
2022-11-29T21:25:39.149Z,6.61
2022-11-29T21:28:12.421Z,6.31
2022-11-29T21:30:41.373Z,6.39
2022-11-29T21:33:10.721Z,6.36
2022-11-29T21:35:40.633Z,6.24
2022-11-29T21:38:14.660Z,6.26
2022-11-29T21:40:42.912Z,6.23
2022-11-29T21:43:10.967Z,6.20
2022-11-29T21:45:40.396Z,6.16
2022-11-29T21:48:28.850Z,6.29
2022-11-29T21:50:59.681Z,6.10
2022-11-29T21:53:29.428Z,6.22
2022-11-29T21:55:58.474Z,6.16
2022-11-29T21:58:27.168Z,6.16
2022-11-29T22:00:55.400Z,6.21
2022-11-29T22:03:23.972Z,6.32
2022-11-29T22:05:52.232Z,6.28
2022-11-29T22:08:20.466Z,6.38
2022-11-29T22:10:50.147Z,6.32
2022-11-29T22:13:18.178Z,6.33
2022-11-29T22:15:46.606Z,6.50
2022-11-29T22:18:14.823Z,6.30
2022-11-29T22:20:47.391Z,6.34
2022-11-29T22:23:15.566Z,6.11
2022-11-29T22:25:44.155Z,6.28
2022-11-29T22:28:14.683Z,5.94
2022-11-29T22:30:43.144Z,6.08
2022-11-29T22:33:13.412Z,6.19
2022-11-29T22:35:44.523Z,6.07
2022-11-29T22:38:13.218Z,5.90
2022-11-29T22:40:41.791Z,6.13
2022-11-29T22:43:10.127Z,6.09
2022-11-29T22:45:40.077Z,6.08
2022-11-29T22:48:08.843Z,6.22
2022-11-29T22:50:37.167Z,6.25
2022-11-29T22:53:05.669Z,5.95
2022-11-29T22:55:33.914Z,6.13
2022-11-29T22:58:02.232Z,5.85
2022-11-29T23:00:31.215Z,6.04
2022-11-29T23:03:00.919Z,6.27
2022-11-29T23:05:32.455Z,6.42
2022-11-29T23:08:01.317Z,6.25
2022-11-29T23:10:29.778Z,6.10
2022-11-29T23:12:58.492Z,6.40
2022-11-29T23:15:26.743Z,6.39
2022-11-29T23:17:55.198Z,6.15
2022-11-29T23:20:24.815Z,6.09
2022-11-29T23:22:53.037Z,5.89
2022-11-29T23:25:23.946Z,6.08
2022-11-29T23:27:54.137Z,6.13
2022-11-29T23:30:22.961Z,6.06
2022-11-29T23:32:51.498Z,6.39
2022-11-29T23:35:20.031Z,6.42
2022-11-29T23:37:49.822Z,6.40
2022-11-29T23:40:18.806Z,6.30
2022-11-29T23:42:52.325Z,6.39
2022-11-29T23:45:20.768Z,6.15
2022-11-29T23:47:49.029Z,6.43
2022-11-29T23:50:17.452Z,6.28
2022-11-29T23:52:45.663Z,6.09
2022-11-29T23:55:16.717Z,6.24
2022-11-29T23:57:44.813Z,5.99
